Hauptseite
Satellitenwetter 10-Tage PrognosenKlimaSeewetter Wirbelstürme Blitz FlughäfenFAQ Newsletter Über uns
Wetter : Europa Afrika Nordamerika Südamerika Asien Australien-Ozeanien Andere
Sprachen Kontakt

Newquay Cornwall, England

Newquay Cornwall Airport

Breite: 50-26N, Länge: 005-00W, Höhe: 119 m


METAR: EGHQ 281720Z 27014KT 9999 FEW025 12/06 Q1017
TAF: EGHQ 281706Z 2818/2821 29010KT 9999 SCT020

Zeit: 18:52 (17:52 UTC)

Beobachtung

Neuester Wetterbericht von vor 32 Minuten, um 17:20 UTC
Wind 14 kt aus West
Temperatur 12°C
Luftfeuchtigkeit 67%
Luftdruck 1017 hPa
Sichtweite 10 km oder mehr
Leicht bewölkt in der Höhe von 2500 ft

Maßeinheiten ändern

Prognose

Neuester Wetterbericht von vor 46 Minuten, um 17:06 UTC
Gültige Prognose vom 28 um 18 UTC bis 28 um 21 UTC
Wind 10 kt aus West/Nordwest
Sichtweite 10 km oder mehr
Aufgelockert bewölkt in der Höhe von 2000 ft
Die Angaben auf diesen Webseiten unterliegen einer Erklärung über den Haftungsausschluss
Wetter : Europa Afrika Nordamerika Südamerika Asien Australien-Ozeanien Andere
Satellitenwetter 10-Tage PrognosenKlimaSeewetter Wirbelstürme Blitz FlughäfenFAQ Sprachen Kontakt Newsletter Über uns